Time;durP1;ratioP1;P1;durP2;ratioP2;P2;SDS_P1;SDS_P2;PMS_P1;PMS_P2;Temp;Humidity;BMP_temperature;BMP_pressure;BME280_temperature;BME280_humidity;BME280_pressure;Samples;Min_cycle;Max_cycle;Signal;HPM_P1;HPM_P2
2021/01/04 00:00:34;;;;;;;0.40;0.30;;;;;;;1.98;100.00;101113.19;5093120;28;20467;-65
2021/01/04 00:03:36;;;;;;;3.70;1.37;;;;;;;2.02;100.00;101122.38;5093239;28;20424;-65
2021/01/04 00:06:38;;;;;;;0.50;0.50;;;;;;;2.01;100.00;101110.06;5093332;28;20432;-65
2021/01/04 00:09:25;;;;;;;1.40;0.77;;;;;;;2.05;100.00;101105.88;5093164;28;20467;-65
2021/01/04 00:11:57;;;;;;;1.33;0.53;;;;;;;2.03;100.00;101116.78;5092853;28;20428;-65
2021/01/04 00:14:46;;;;;;;0.40;0.30;;;;;;;2.12;100.00;101117.25;5093123;28;20467;-66
2021/01/04 00:17:28;;;;;;;0.40;0.30;;;;;;;2.11;100.00;101110.28;5093180;28;20420;-66
2021/01/04 00:20:01;;;;;;;0.40;0.30;;;;;;;2.16;100.00;101118.41;5092684;28;20483;-65
2021/01/04 00:22:34;;;;;;;0.77;0.70;;;;;;;2.12;100.00;101114.59;5092766;28;20797;-65
2021/01/04 00:25:11;;;;;;;0.40;0.30;;;;;;;2.05;100.00;101113.09;5093111;28;20424;-65
2021/01/04 00:27:44;;;;;;;0.40;0.30;;;;;;;2.11;100.00;101110.28;5093033;28;20463;-65
2021/01/04 00:30:20;;;;;;;2.20;0.63;;;;;;;2.14;100.00;101112.50;5092881;28;20487;-64
2021/01/04 00:32:47;;;;;;;0.40;0.30;;;;;;;2.15;100.00;101118.66;5092971;28;20440;-65
2021/01/04 00:35:19;;;;;;;0.50;0.40;;;;;;;2.12;100.00;101117.25;5092630;28;20962;-65
2021/01/04 00:38:19;;;;;;;2.00;1.90;;;;;;;2.19;100.00;101114.47;5092982;28;20428;-65
2021/01/04 00:41:07;;;;;;;0.70;0.70;;;;;;;2.12;100.00;101117.25;5092998;28;20464;-65
2021/01/04 00:43:41;;;;;;;0.50;0.43;;;;;;;2.16;100.00;101115.75;5092894;28;20428;-64
2021/01/04 00:46:08;;;;;;;0.40;0.30;;;;;;;2.09;100.00;101114.25;5092643;28;20925;-65
2021/01/04 00:48:38;;;;;;;0.40;0.30;;;;;;;2.07;100.00;101111.78;5092777;28;20539;-65
2021/01/04 00:51:22;;;;;;;0.50;0.40;;;;;;;2.11;100.00;101117.50;5092468;28;20465;-65
2021/01/04 00:53:51;;;;;;;1.80;1.17;;;;;;;2.06;100.00;101114.72;5093389;28;20463;-65
2021/01/04 00:56:32;;;;;;;0.40;0.30;;;;;;;2.00;100.00;101113.78;5096202;28;20944;-66
2021/01/04 00:59:11;;;;;;;4.03;1.33;;;;;;;1.97;100.00;101115.03;5096517;28;20445;-65
2021/01/04 01:02:06;;;;;;;1.03;1.03;;;;;;;1.90;100.00;101121.53;5096068;28;20461;-66
2021/01/04 01:04:39;;;;;;;1.00;0.50;;;;;;;1.91;100.00;101110.63;5096403;28;20517;-65
2021/01/04 01:07:10;;;;;;;0.50;0.40;;;;;;;1.92;100.00;101111.44;5096068;28;20467;-66
2021/01/04 01:09:43;;;;;;;0.40;0.30;;;;;;;1.89;100.00;101118.06;5095879;28;20484;-66
2021/01/04 01:12:21;;;;;;;1.33;1.23;;;;;;;1.94;100.00;101120.03;5095975;28;20420;-65
2021/01/04 01:15:04;;;;;;;0.57;0.43;;;;;;;1.99;100.00;101125.50;5096410;28;20460;-65
2021/01/04 01:18:10;;;;;;;0.40;0.30;;;;;;;1.98;100.00;101122.00;5096136;28;20464;-66
2021/01/04 01:20:38;;;;;;;0.60;0.40;;;;;;;2.02;100.00;101114.34;5095771;28;20499;-65
2021/01/04 01:23:07;;;;;;;0.40;0.30;;;;;;;2.05;100.00;101108.56;5096074;28;20521;-70
2021/01/04 01:25:43;;;;;;;3.40;1.27;;;;;;;2.09;100.00;101109.72;5095987;28;20437;-67
2021/01/04 01:28:45;;;;;;;0.50;0.47;;;;;;;2.14;100.00;101117.03;5095673;28;20416;-65
2021/01/04 01:31:43;;;;;;;0.40;0.30;;;;;;;2.14;100.00;101117.03;5063159;28;20468;-66
2021/01/04 01:34:24;;;;;;;0.40;0.30;;;;;;;2.12;100.00;101113.78;5095852;28;20478;-66
2021/01/04 01:37:15;;;;;;;0.40;0.40;;;;;;;2.05;100.00;101116.56;5095756;28;20419;-66
2021/01/04 01:40:12;;;;;;;0.57;0.57;;;;;;;2.05;100.00;101116.56;5095673;28;20462;-65
2021/01/04 01:43:02;;;;;;;0.40;0.30;;;;;;;1.99;100.00;101106.78;5095282;28;20456;-66
2021/01/04 01:45:36;;;;;;;0.40;0.23;;;;;;;2.04;100.00;101114.94;5095617;28;20429;-66
2021/01/04 01:48:08;;;;;;;0.40;0.30;;;;;;;2.05;100.00;101121.09;5095593;28;20788;-66
2021/01/04 01:50:44;;;;;;;0.40;0.33;;;;;;;2.06;100.00;101120.06;5095100;28;20975;-66
2021/01/04 01:53:24;;;;;;;0.60;0.60;;;;;;;2.01;100.00;101120.75;5095175;28;20457;-66
2021/01/04 01:56:13;;;;;;;0.40;0.30;;;;;;;1.94;100.00;101128.84;5095112;28;20421;-65
2021/01/04 01:59:07;;;;;;;0.40;0.30;;;;;;;1.92;100.00;101119.47;5091961;28;20491;-66
2021/01/04 02:01:40;;;;;;;0.40;0.30;;;;;;;1.90;100.00;101121.53;5095154;28;20452;-65
2021/01/04 02:04:12;;;;;;;0.40;0.30;;;;;;;1.93;100.00;101121.06;5095270;28;20460;-66
2021/01/04 02:07:08;;;;;;;0.40;0.30;;;;;;;1.96;100.00;101116.09;5094243;28;20452;-66
2021/01/04 02:09:42;;;;;;;4.10;0.60;;;;;;;1.91;100.00;101124.00;5094629;28;20460;-66
2021/01/04 02:12:16;;;;;;;0.40;0.30;;;;;;;1.94;100.00;101117.34;5095152;28;20452;-66
2021/01/04 02:14:51;;;;;;;2.03;0.60;;;;;;;1.98;100.00;101121.19;5094988;28;20460;-66
2021/01/04 02:17:42;;;;;;;0.40;0.40;;;;;;;1.95;100.00;101127.03;5094909;28;20447;-66
2021/01/04 02:20:43;;;;;;;0.40;0.30;;;;;;;1.87;100.00;101119.34;5094685;28;20471;-65
2021/01/04 02:23:25;;;;;;;0.40;0.20;;;;;;;1.83;100.00;101112.81;5084045;28;20812;-65
2021/01/04 02:25:55;;;;;;;0.40;0.30;;;;;;;1.95;100.00;101121.69;5095032;28;20434;-66
2021/01/04 02:28:28;;;;;;;0.40;0.30;;;;;;;2.03;100.00;101119.44;5094698;28;20442;-67
2021/01/04 02:30:54;;;;;;;1.10;0.77;;;;;;;2.09;100.00;101125.75;5094628;28;20467;-65
2021/01/04 02:33:21;;;;;;;0.40;0.30;;;;;;;2.15;100.00;101119.47;5094623;28;20476;-68
2021/01/04 02:35:49;;;;;;;0.40;0.30;;;;;;;2.16;100.00;101120.28;5094091;28;20441;-66
2021/01/04 02:38:22;;;;;;;0.40;0.30;;;;;;;2.19;100.00;101122.50;5094569;28;20444;-65
2021/01/04 02:40:48;;;;;;;0.50;0.40;;;;;;;2.19;100.00;101120.63;5094199;28;20500;-66
2021/01/04 02:43:15;;;;;;;0.40;0.30;;;;;;;2.25;100.00;101116.22;5094487;28;20438;-66
2021/01/04 02:45:41;;;;;;;0.73;0.60;;;;;;;2.26;100.00;101123.22;5094099;28;20818;-66
2021/01/04 02:48:39;;;;;;;1.60;0.50;;;;;;;2.30;100.00;101120.84;5094392;28;20485;-66
2021/01/04 02:51:11;;;;;;;0.40;0.20;;;;;;;2.31;100.00;101119.84;5094238;28;20459;-65
2021/01/04 02:53:59;;;;;;;1.63;0.67;;;;;;;2.31;100.00;101127.84;5094325;28;20475;-66
2021/01/04 02:56:42;;;;;;;0.40;0.27;;;;;;;2.31;100.00;101125.19;5094333;28;20507;-66
2021/01/04 02:59:23;;;;;;;0.40;0.30;;;;;;;2.18;100.00;101120.88;5092580;28;20480;-65
2021/01/04 03:01:55;;;;;;;0.40;0.30;;;;;;;2.15;100.00;101119.47;5094080;28;20904;-66
2021/01/04 03:04:23;;;;;;;0.40;0.30;;;;;;;1.96;100.00;101123.28;5094085;28;20839;-67
2021/01/04 03:06:56;;;;;;;0.40;0.30;;;;;;;2.03;100.00;101122.13;5093724;28;20455;-67
2021/01/04 03:09:23;;;;;;;0.97;0.50;;;;;;;2.01;100.00;101124.22;5093829;28;20514;-67
2021/01/04 03:11:49;;;;;;;0.40;0.30;;;;;;;2.09;100.00;101131.09;5093978;28;20493;-67
2021/01/04 03:14:29;;;;;;;0.40;0.30;;;;;;;2.05;100.00;101131.78;5093907;28;20468;-66
2021/01/04 03:17:02;;;;;;;0.40;0.30;;;;;;;1.99;100.00;101130.81;5093197;28;20925;-66
2021/01/04 03:19:32;;;;;;;1.43;0.50;;;;;;;2.02;100.00;101125.03;5093233;28;20470;-67
2021/01/04 03:22:03;;;;;;;0.40;0.30;;;;;;;2.11;100.00;101128.19;5090301;22;20494;-78
2021/01/04 03:24:29;;;;;;;0.40;0.20;;;;;;;2.15;100.00;101135.50;5069072;28;20453;-79
2021/01/04 03:27:00;;;;;;;0.50;0.50;;;;;;;2.16;100.00;101136.31;5078622;22;20840;-66
2021/01/04 03:29:27;;;;;;;0.40;0.30;;;;;;;2.12;100.00;101130.59;5052769;28;20484;-66
2021/01/04 03:31:54;;;;;;;0.40;0.30;;;;;;;2.15;100.00;101130.16;5053532;28;20499;-67
2021/01/04 03:34:20;;;;;;;1.13;0.70;;;;;;;2.14;100.00;101136.56;5053299;28;20465;-67
2021/01/04 03:36:47;;;;;;;0.40;0.37;;;;;;;2.19;100.00;101134.00;5053453;28;20466;-66
2021/01/04 03:39:14;;;;;;;0.40;0.30;;;;;;;2.16;100.00;101126.44;5053030;28;20450;-67
2021/01/04 03:41:40;;;;;;;0.80;0.80;;;;;;;2.09;100.00;101128.41;5053418;28;20489;-66
2021/01/04 03:44:06;;;;;;;0.40;0.37;;;;;;;2.07;100.00;101127.81;5053079;28;20861;-67
2021/01/04 03:46:33;;;;;;;0.40;0.30;;;;;;;2.11;100.00;101125.50;5053198;28;20449;-67
2021/01/04 03:48:59;;;;;;;0.50;0.50;;;;;;;2.13;100.00;101120.75;5052989;28;20520;-66
2021/01/04 03:51:26;;;;;;;0.40;0.30;;;;;;;2.17;100.00;101130.75;5052792;28;21009;-67
2021/01/04 03:53:52;;;;;;;0.40;0.30;;;;;;;2.19;100.00;101131.31;5053078;28;20468;-66
2021/01/04 03:56:20;;;;;;;1.17;0.50;;;;;;;2.15;100.00;101134.69;5052896;28;20489;-66
2021/01/04 03:58:46;;;;;;;0.40;0.30;;;;;;;2.16;100.00;101131.78;5052938;28;20966;-67
2021/01/04 04:01:12;;;;;;;0.40;0.20;;;;;;;2.18;100.00;101124.38;5053053;28;20472;-67
2021/01/04 04:03:39;;;;;;;0.73;0.70;;;;;;;2.21;100.00;101126.56;5052528;28;20476;-67
2021/01/04 04:06:09;;;;;;;0.50;0.50;;;;;;;2.25;100.00;101130.38;5052854;28;20478;-66
2021/01/04 04:08:35;;;;;;;0.40;0.30;;;;;;;2.26;100.00;101118.69;5052242;28;20445;-66
2021/01/04 04:11:01;;;;;;;0.40;0.30;;;;;;;2.31;100.00;101125.19;5052812;28;20470;-66
2021/01/04 04:13:27;;;;;;;0.40;0.30;;;;;;;2.25;100.00;101119.69;5052681;28;20525;-67
2021/01/04 04:15:53;;;;;;;0.40;0.30;;;;;;;2.22;100.00;101119.38;5053132;28;20449;-66
2021/01/04 04:18:19;;;;;;;0.60;0.30;;;;;;;2.32;100.00;101121.47;5052687;28;20449;-66
2021/01/04 04:20:46;;;;;;;0.40;0.30;;;;;;;2.32;100.00;101116.13;5052339;28;20553;-66
2021/01/04 04:23:13;;;;;;;1.70;0.60;;;;;;;2.33;100.00;101113.19;5052693;28;20489;-66
2021/01/04 04:25:39;;;;;;;0.40;0.30;;;;;;;2.28;100.00;101113.91;5052653;28;20797;-65
2021/01/04 04:28:05;;;;;;;0.40;0.30;;;;;;;2.23;100.00;101112.97;5052617;28;20886;-66
2021/01/04 04:30:31;;;;;;;0.40;0.30;;;;;;;2.24;100.00;101114.59;5055776;28;20521;-67
2021/01/04 04:32:59;;;;;;;0.40;0.30;;;;;;;2.25;100.00;101113.53;5056772;28;20444;-66
2021/01/04 04:35:28;;;;;;;0.60;0.53;;;;;;;2.26;100.00;101115.19;5056316;28;20500;-66
2021/01/04 04:37:55;;;;;;;0.40;0.30;;;;;;;2.23;100.00;101113.78;5056709;28;20442;-65
2021/01/04 04:40:25;;;;;;;0.40;0.27;;;;;;;2.21;100.00;101118.56;5056346;28;20453;-66
2021/01/04 04:42:54;;;;;;;2.87;0.67;;;;;;;2.16;100.00;101110.41;5056782;28;20475;-66
2021/01/04 04:45:21;;;;;;;0.40;0.30;;;;;;;2.16;100.00;101114.94;5056253;28;20997;-65
2021/01/04 04:48:31;;;;;;;0.40;0.30;;;;;;;2.19;100.00;101122.50;5056773;28;20814;-65
2021/01/04 04:51:11;;;;;;;0.40;0.30;;;;;;;2.10;100.00;101126.56;5030364;28;20574;-66
2021/01/04 04:54:01;;;;;;;0.40;0.27;;;;;;;2.10;100.00;101127.38;5039405;28;20469;-65
2021/01/04 04:57:24;;;;;;;0.40;0.30;;;;;;;2.09;100.00;101115.06;5056122;28;20426;-66
2021/01/04 05:00:03;;;;;;;0.40;0.40;;;;;;;1.99;100.00;101117.47;4965198;28;20528;-64
2021/01/04 05:02:43;;;;;;;0.40;0.30;;;;;;;1.99;100.00;101125.50;4974777;28;20500;-65
2021/01/04 05:05:30;;;;;;;0.50;0.40;;;;;;;2.01;100.00;101128.75;5037842;28;20840;-64
2021/01/04 05:08:02;;;;;;;3.07;1.37;;;;;;;1.98;100.00;101122.00;5055856;28;20439;-65
2021/01/04 05:10:33;;;;;;;0.50;0.47;;;;;;;1.98;100.00;101121.19;5055591;28;20466;-65
2021/01/04 05:13:05;;;;;;;0.40;0.30;;;;;;;2.08;100.00;101121.47;5055804;28;20441;-66
2021/01/04 05:15:46;;;;;;;2.07;0.70;;;;;;;2.13;100.00;101132.25;5055618;28;20914;-66
2021/01/04 05:18:26;;;;;;;0.40;0.30;;;;;;;2.15;100.00;101132.84;5055648;28;20448;-66
2021/01/04 05:21:21;;;;;;;0.50;0.40;;;;;;;2.20;100.00;101135.63;5055938;28;20492;-65
2021/01/04 05:24:10;;;;;;;0.40;0.30;;;;;;;2.22;100.00;101136.22;5055335;28;20943;-66
2021/01/04 05:26:56;;;;;;;0.40;0.33;;;;;;;2.23;100.00;101134.34;5055420;28;20934;-66
2021/01/04 05:30:12;;;;;;;0.70;0.50;;;;;;;2.22;100.00;101130.06;5038241;28;20524;-67
2021/01/04 05:32:59;;;;;;;0.57;0.57;;;;;;;2.24;100.00;101134.09;4958350;28;20453;-66
2021/01/04 05:35:28;;;;;;;0.40;0.30;;;;;;;2.21;100.00;101131.94;5055305;28;20423;-66
2021/01/04 05:38:02;;;;;;;0.40;0.30;;;;;;;2.11;100.00;101129.00;5055096;28;20450;-65
2021/01/04 05:40:59;;;;;;;0.67;0.40;;;;;;;2.19;100.00;101133.19;5054157;28;20544;-66
2021/01/04 05:43:43;;;;;;;1.83;0.73;;;;;;;2.22;100.00;101141.56;5026637;28;20448;-66
2021/01/04 05:46:19;;;;;;;0.40;0.30;;;;;;;2.19;100.00;101135.84;5054696;28;20454;-65
2021/01/04 05:49:07;;;;;;;0.60;0.60;;;;;;;2.17;100.00;101137.94;5054920;28;20449;-66
2021/01/04 05:51:37;;;;;;;0.90;0.90;;;;;;;2.13;100.00;101134.13;5055228;28;20478;-66
2021/01/04 05:54:03;;;;;;;0.40;0.30;;;;;;;2.10;100.00;101138.06;5054927;28;20540;-66
2021/01/04 05:56:31;;;;;;;0.40;0.30;;;;;;;2.00;100.00;101140.50;5054925;28;20973;-65
2021/01/04 05:59:08;;;;;;;0.93;0.50;;;;;;;2.00;100.00;101148.50;5054738;28;20457;-66
2021/01/04 06:01:35;;;;;;;1.33;0.90;;;;;;;1.99;100.00;101146.84;5054872;28;20475;-65
2021/01/04 06:04:03;;;;;;;0.40;0.30;;;;;;;1.99;100.00;101147.69;5055015;28;20438;-65
2021/01/04 06:06:41;;;;;;;0.80;0.57;;;;;;;1.96;100.00;101139.31;5054038;28;20841;-66
2021/01/04 06:09:14;;;;;;;0.93;0.60;;;;;;;1.93;100.00;101137.91;5054833;28;20502;-65
2021/01/04 06:11:48;;;;;;;0.40;0.30;;;;;;;1.92;100.00;101146.16;5054945;28;21043;-64
2021/01/04 06:14:15;;;;;;;0.40;0.30;;;;;;;1.90;100.00;101137.56;5056305;28;20477;-62
2021/01/04 06:16:44;;;;;;;0.40;0.30;;;;;;;1.89;100.00;101135.94;5057425;28;20940;-63
2021/01/04 06:19:13;;;;;;;3.80;0.90;;;;;;;1.86;100.00;101144.41;5058753;28;20437;-62
2021/01/04 06:21:48;;;;;;;0.40;0.30;;;;;;;1.88;100.00;101139.66;5059374;28;20467;-63
2021/01/04 06:24:33;;;;;;;0.40;0.30;;;;;;;1.90;100.00;101143.72;5059259;28;20430;-62
2021/01/04 06:27:10;;;;;;;0.40;0.20;;;;;;;1.92;100.00;101146.16;5058904;28;20844;-63
2021/01/04 06:29:41;;;;;;;1.13;1.00;;;;;;;1.98;100.00;101145.25;5058617;28;20469;-62
2021/01/04 06:32:17;;;;;;;1.73;1.17;;;;;;;1.98;100.00;101140.72;5057823;28;20481;-63
2021/01/04 06:34:50;;;;;;;0.40;0.30;;;;;;;1.99;100.00;101137.00;5058241;28;20429;-62
2021/01/04 06:37:19;;;;;;;0.40;0.30;;;;;;;1.99;100.00;101138.84;5057754;28;20434;-62
2021/01/04 06:39:51;;;;;;;0.40;0.33;;;;;;;1.94;100.00;101133.38;5058019;28;20430;-63
2021/01/04 06:42:20;;;;;;;0.40;0.30;;;;;;;1.92;100.00;101146.16;5057512;28;20492;-62
2021/01/04 06:45:15;;;;;;;0.40;0.30;;;;;;;1.93;100.00;101148.59;5057410;28;20450;-63
2021/01/04 06:47:48;;;;;;;0.40;0.30;;;;;;;2.01;100.00;101148.28;5056577;28;20430;-63
2021/01/04 06:50:19;;;;;;;0.40;0.30;;;;;;;2.01;100.00;101150.13;5056624;28;20477;-62
2021/01/04 06:53:36;;;;;;;0.40;0.30;;;;;;;2.00;100.00;101151.19;5055994;28;20946;-62
2021/01/04 06:56:42;;;;;;;0.40;0.20;;;;;;;2.05;100.00;101150.50;5056377;28;20433;-62
2021/01/04 06:59:44;;;;;;;0.40;0.30;;;;;;;2.01;100.00;101140.25;5056700;28;20432;-63
2021/01/04 07:02:42;;;;;;;0.53;0.53;;;;;;;1.96;100.00;101155.34;5055850;28;20462;-63
2021/01/04 07:05:39;;;;;;;0.40;0.40;;;;;;;1.94;100.00;101150.22;5056938;28;20432;-62
2021/01/04 07:08:39;;;;;;;0.40;0.30;;;;;;;1.89;100.00;101151.97;5056343;28;20904;-62
2021/01/04 07:11:21;;;;;;;0.70;0.50;;;;;;;1.86;100.00;101153.25;5056808;28;20490;-63
2021/01/04 07:14:01;;;;;;;0.40;0.30;;;;;;;1.85;100.00;101151.59;5057046;28;20441;-63
2021/01/04 07:16:59;;;;;;;0.40;0.30;;;;;;;1.93;100.00;101156.63;5059895;28;20426;-63
2021/01/04 07:19:49;;;;;;;0.40;0.40;;;;;;;1.93;100.00;101161.16;5059205;28;20496;-63
2021/01/04 07:22:24;;;;;;;1.17;1.00;;;;;;;1.93;100.00;101169.97;5058473;28;20462;-64
2021/01/04 07:25:04;;;;;;;0.40;0.30;;;;;;;1.87;100.00;101170.91;5039670;28;20431;-63
2021/01/04 07:27:42;;;;;;;0.40;0.30;;;;;;;1.88;100.00;101169.03;5038292;28;20446;-63
2021/01/04 07:30:20;;;;;;;0.77;0.50;;;;;;;1.89;100.00;101178.66;5038770;28;20474;-62
2021/01/04 07:32:58;;;;;;;0.40;0.27;;;;;;;1.91;100.00;101181.94;5041010;28;20914;-63
2021/01/04 07:35:31;;;;;;;0.83;0.83;;;;;;;1.90;100.00;101181.09;5042916;28;20435;-64
2021/01/04 07:38:16;;;;;;;0.50;0.37;;;;;;;1.89;100.00;101173.31;5041414;28;20428;-62
2021/01/04 07:41:00;;;;;;;0.40;0.30;;;;;;;1.86;100.00;101176.44;5043081;28;20459;-63
2021/01/04 07:44:06;;;;;;;0.40;0.30;;;;;;;1.94;100.00;101181.47;5045269;28;20435;-63
2021/01/04 07:47:23;;;;;;;0.40;0.30;;;;;;;1.99;100.00;101176.25;5042302;28;20942;-63
2021/01/04 07:50:33;;;;;;;0.40;0.20;;;;;;;2.01;100.00;101174.19;5042128;28;20471;-64
2021/01/04 07:53:43;;;;;;;0.70;0.70;;;;;;;1.98;100.00;101171.94;4960034;29;20464;-64
2021/01/04 07:56:54;;;;;;;1.80;1.03;;;;;;;1.94;100.00;101184.94;5039541;28;20505;-63
2021/01/04 07:59:41;;;;;;;0.40;0.20;;;;;;;1.98;100.00;101183.44;5037301;28;20428;-62
2021/01/04 08:02:30;;;;;;;0.40;0.30;;;;;;;2.02;100.00;101187.28;5036594;28;20554;-63
2021/01/04 08:05:29;;;;;;;0.77;0.67;;;;;;;2.08;100.00;101192.75;5036063;28;20486;-65
2021/01/04 08:08:17;;;;;;;1.50;1.40;;;;;;;2.09;100.00;101192.53;5034388;28;20466;-64
2021/01/04 08:11:11;;;;;;;0.50;0.50;;;;;;;2.06;100.00;101190.31;5038381;28;20521;-65
2021/01/04 08:14:10;;;;;;;0.40;0.30;;;;;;;2.10;100.00;101191.50;5037701;28;20423;-65
2021/01/04 08:16:42;;;;;;;0.40;0.30;;;;;;;2.15;100.00;101188.94;5036995;28;20459;-65
2021/01/04 08:19:11;;;;;;;1.30;0.80;;;;;;;2.23;100.00;101201.16;5037477;28;20432;-65
2021/01/04 08:21:54;;;;;;;0.40;0.30;;;;;;;2.28;100.00;101196.75;5037141;28;20494;-64
2021/01/04 08:24:26;;;;;;;0.40;0.30;;;;;;;2.35;100.00;101193.16;5037627;28;20431;-65
2021/01/04 08:27:13;;;;;;;1.00;0.50;;;;;;;2.31;100.00;101203.50;5037012;28;20515;-63
2021/01/04 08:29:48;;;;;;;0.40;0.30;;;;;;;2.30;100.00;101199.19;5036255;28;20539;-64
2021/01/04 08:32:21;;;;;;;4.43;1.57;;;;;;;2.34;100.00;101204.88;5037043;28;20539;-64
2021/01/04 08:34:49;;;;;;;0.40;0.30;;;;;;;2.40;100.00;101206.66;5037042;28;20443;-66
2021/01/04 08:37:18;;;;;;;0.40;0.37;;;;;;;2.39;100.00;101205.84;5036841;28;20445;-65
2021/01/04 08:39:48;;;;;;;0.40;0.30;;;;;;;2.32;100.00;101209.66;5036791;28;20467;-64
2021/01/04 08:42:32;;;;;;;0.50;0.40;;;;;;;2.33;100.00;101212.09;5036604;28;20508;-65
2021/01/04 08:45:03;;;;;;;0.67;0.43;;;;;;;2.40;100.00;101212.81;5036411;28;20425;-64
2021/01/04 08:47:36;;;;;;;1.10;1.07;;;;;;;2.43;100.00;101220.34;5036703;28;20462;-64
2021/01/04 08:50:15;;;;;;;0.40;0.40;;;;;;;2.49;100.00;101205.25;5036572;28;20484;-65
2021/01/04 08:52:45;;;;;;;0.40;0.30;;;;;;;2.56;100.00;101211.28;5036685;28;20429;-65
2021/01/04 08:55:24;;;;;;;0.40;0.30;;;;;;;2.57;100.00;101212.94;5036172;28;20474;-64
2021/01/04 08:57:52;;;;;;;0.70;0.50;;;;;;;2.58;100.00;101209.22;5036618;28;20839;-64
2021/01/04 09:00:22;;;;;;;0.50;0.40;;;;;;;2.60;100.00;101215.13;5036936;28;20435;-64
2021/01/04 09:02:49;;;;;;;0.50;0.40;;;;;;;2.52;100.00;101215.47;5036685;28;20487;-63
2021/01/04 09:05:29;;;;;;;0.40;0.30;;;;;;;2.58;100.00;101214.56;5036542;28;20435;-64
2021/01/04 09:07:57;;;;;;;1.00;0.90;;;;;;;2.62;100.00;101214.91;5036330;28;20510;-63
2021/01/04 09:10:26;;;;;;;0.40;0.30;;;;;;;2.67;100.00;101217.72;5035895;28;20475;-65
2021/01/04 09:13:06;;;;;;;0.40;0.30;;;;;;;2.65;100.00;101219.78;5036508;28;20528;-64
2021/01/04 09:15:33;;;;;;;0.40;0.30;;;;;;;2.64;100.00;101221.66;5036212;28;20849;-66
2021/01/04 09:18:26;;;;;;;0.40;0.30;;;;;;;2.64;100.00;101224.31;5036236;28;20945;-64
2021/01/04 09:20:59;;;;;;;0.40;0.30;;;;;;;2.63;100.00;101220.03;5035937;28;20539;-65
2021/01/04 09:23:30;;;;;;;1.27;0.70;;;;;;;2.68;100.00;101222.81;5081726;22;20501;-64
2021/01/04 09:26:08;;;;;;;0.93;0.93;;;;;;;2.68;100.00;101225.47;5075726;28;20438;-64
2021/01/04 09:28:40;;;;;;;0.40;0.40;;;;;;;2.66;100.00;101232.94;5076226;28;20425;-64
2021/01/04 09:31:08;;;;;;;1.07;0.40;;;;;;;2.70;100.00;101226.09;5076024;28;20466;-64
2021/01/04 09:33:43;;;;;;;0.60;0.40;;;;;;;2.77;100.00;101234.78;5076108;28;20463;-64
2021/01/04 09:36:10;;;;;;;1.53;1.43;;;;;;;2.75;100.00;101226.19;5075802;28;20789;-64
2021/01/04 09:38:36;;;;;;;0.40;0.30;;;;;;;2.69;100.00;101228.97;5075913;28;20446;-64
2021/01/04 09:41:05;;;;;;;0.40;0.30;;;;;;;2.49;100.00;101232.81;5075873;28;20520;-65
2021/01/04 09:43:34;;;;;;;0.50;0.43;;;;;;;2.51;100.00;101235.25;5075660;28;20470;-64
2021/01/04 09:46:13;;;;;;;0.40;0.30;;;;;;;2.58;100.00;101238.63;5075378;28;20452;-64
2021/01/04 09:48:45;;;;;;;0.40;0.30;;;;;;;2.61;100.00;101235.50;5076206;28;20430;-64
2021/01/04 09:51:16;;;;;;;0.40;0.30;;;;;;;2.59;100.00;101232.22;5075162;28;21005;-64
2021/01/04 09:53:51;;;;;;;0.50;0.40;;;;;;;2.59;100.00;101228.75;5074661;28;20501;-64
2021/01/04 09:56:19;;;;;;;0.40;0.30;;;;;;;2.60;100.00;101230.38;5075191;28;20452;-64
2021/01/04 09:58:45;;;;;;;1.67;0.50;;;;;;;2.61;100.00;101222.13;5075761;28;20445;-64
2021/01/04 10:01:14;;;;;;;0.50;0.50;;;;;;;2.64;100.00;101223.50;5075568;28;20439;-63
2021/01/04 10:03:53;;;;;;;0.40;0.30;;;;;;;2.69;100.00;101227.09;5094285;28;20467;-64
2021/01/04 10:06:20;;;;;;;0.40;0.30;;;;;;;2.71;100.00;101218.88;5095509;28;20471;-64
2021/01/04 10:08:47;;;;;;;0.93;0.87;;;;;;;2.72;100.00;101223.16;5095484;28;20465;-65
2021/01/04 10:11:19;;;;;;;0.40;0.30;;;;;;;2.68;100.00;101217.47;5096008;28;20523;-64
2021/01/04 10:13:46;;;;;;;0.90;0.50;;;;;;;2.65;100.00;101219.78;5096950;28;20505;-65
2021/01/04 10:16:19;;;;;;;2.30;2.10;;;;;;;2.64;100.00;101227.00;5095560;28;20445;-63
2021/01/04 10:18:50;;;;;;;0.40;0.30;;;;;;;2.52;100.00;101227.00;5096978;28;20428;-63
2021/01/04 10:21:21;;;;;;;0.40;0.30;;;;;;;2.57;100.00;101223.63;5097297;28;20457;-63
2021/01/04 10:23:52;;;;;;;0.50;0.47;;;;;;;2.58;100.00;101224.44;5097448;28;20918;-64
2021/01/04 10:26:19;;;;;;;0.40;0.30;;;;;;;2.54;100.00;101224.09;5095559;28;20908;-64
2021/01/04 10:28:45;;;;;;;0.60;0.40;;;;;;;2.49;100.00;101227.47;5096117;28;20444;-64
2021/01/04 10:31:26;;;;;;;3.50;1.03;;;;;;;2.50;100.00;101217.56;5096381;28;20482;-64
2021/01/04 10:34:06;;;;;;;0.60;0.60;;;;;;;2.52;100.00;101220.81;5096311;28;20984;-64
2021/01/04 10:36:34;;;;;;;0.70;0.40;;;;;;;2.55;100.00;101211.53;5099846;28;20420;-66
2021/01/04 10:39:07;;;;;;;0.40;0.30;;;;;;;2.57;100.00;101212.94;5097138;28;20443;-65
2021/01/04 10:41:36;;;;;;;0.40;0.20;;;;;;;2.59;100.00;101215.38;5095815;28;20425;-65
2021/01/04 10:44:07;;;;;;;0.50;0.40;;;;;;;2.53;100.00;101209.09;5095664;28;20858;-64
2021/01/04 10:46:38;;;;;;;1.57;0.57;;;;;;;2.53;100.00;101211.78;5095566;28;20486;-65
2021/01/04 10:49:07;;;;;;;0.50;0.50;;;;;;;2.54;100.00;101202.69;5095722;28;20432;-65
2021/01/04 10:51:36;;;;;;;0.40;0.30;;;;;;;2.50;100.00;101198.88;5095290;28;20482;-65
2021/01/04 10:54:13;;;;;;;0.40;0.40;;;;;;;2.55;100.00;101198.97;5095563;28;20475;-65
2021/01/04 10:56:44;;;;;;;2.40;0.77;;;;;;;2.44;100.00;101202.47;5095477;28;20452;-65
2021/01/04 10:59:18;;;;;;;0.40;0.30;;;;;;;2.41;100.00;101197.59;5095387;28;20425;-65
2021/01/04 11:01:48;;;;;;;2.20;1.80;;;;;;;2.47;100.00;101196.66;5095907;28;20467;-64
2021/01/04 11:04:17;;;;;;;0.40;0.33;;;;;;;2.42;100.00;101199.19;5096412;28;20432;-64
2021/01/04 11:06:46;;;;;;;0.83;0.83;;;;;;;2.41;100.00;101194.91;5096134;28;20448;-64
2021/01/04 11:09:16;;;;;;;0.77;0.40;;;;;;;2.39;100.00;101197.81;5096309;28;20472;-64
2021/01/04 11:11:44;;;;;;;0.40;0.30;;;;;;;2.41;100.00;101202.94;5096091;28;20467;-65
2021/01/04 11:14:15;;;;;;;1.80;1.70;;;;;;;2.43;100.00;101196.28;5094932;28;20854;-64
2021/01/04 11:16:44;;;;;;;0.40;0.30;;;;;;;2.46;100.00;101211.06;5095292;28;20424;-65
2021/01/04 11:19:12;;;;;;;0.50;0.37;;;;;;;2.53;100.00;101206.44;5095353;28;20454;-63
2021/01/04 11:21:40;;;;;;;1.13;1.13;;;;;;;2.50;100.00;101202.34;5095566;28;20437;-64
2021/01/04 11:24:08;;;;;;;1.63;0.53;;;;;;;2.51;100.00;101198.63;5095452;28;20424;-64
2021/01/04 11:26:34;;;;;;;0.40;0.30;;;;;;;2.57;100.00;101196.91;5096069;28;20453;-64
2021/01/04 11:29:00;;;;;;;0.40;0.30;;;;;;;2.58;100.00;101197.72;5096282;28;20434;-64
2021/01/04 11:31:32;;;;;;;0.50;0.40;;;;;;;2.56;100.00;101187.22;5095076;28;21029;-65
2021/01/04 11:33:58;;;;;;;0.60;0.40;;;;;;;2.61;100.00;101189.19;5096497;28;20432;-65
2021/01/04 11:36:25;;;;;;;3.50;1.23;;;;;;;2.62;100.00;101193.53;5095702;28;20930;-64
2021/01/04 11:38:51;;;;;;;1.10;0.70;;;;;;;2.57;100.00;101188.88;5095367;28;20938;-64
2021/01/04 11:41:18;;;;;;;0.60;0.60;;;;;;;2.58;100.00;101189.69;5094586;28;20784;-65
2021/01/04 11:43:45;;;;;;;0.63;0.63;;;;;;;2.60;100.00;101191.06;5096935;28;20476;-61
2021/01/04 11:46:12;;;;;;;0.40;0.30;;;;;;;2.61;100.00;101191.88;5097736;28;20450;-64
2021/01/04 11:48:38;;;;;;;0.90;0.90;;;;;;;2.54;100.00;101186.66;5097023;28;20455;-64
2021/01/04 11:51:05;;;;;;;0.40;0.30;;;;;;;2.52;100.00;101186.06;5097150;28;20484;-64
2021/01/04 11:53:32;;;;;;;0.40;0.30;;;;;;;2.56;100.00;101183.75;5096040;28;20831;-64
2021/01/04 11:55:58;;;;;;;0.40;0.37;;;;;;;2.56;100.00;101179.19;5096045;28;20955;-64
2021/01/04 11:58:24;;;;;;;0.97;0.87;;;;;;;2.55;100.00;101182.94;5096656;28;20436;-65
2021/01/04 12:00:52;;;;;;;1.10;1.07;;;;;;;2.56;100.00;101178.41;5095942;28;20439;-65
2021/01/04 12:03:18;;;;;;;0.40;0.30;;;;;;;2.62;100.00;101172.13;5096228;28;20463;-64
2021/01/04 12:05:44;;;;;;;1.53;0.77;;;;;;;2.61;100.00;101176.66;5096697;28;20444;-63